Time;durP1;ratioP1;P1;durP2;ratioP2;P2;SDS_P1;SDS_P2;PMS_P1;PMS_P2;Temp;Humidity;BMP_temperature;BMP_pressure;BME280_temperature;BME280_humidity;BME280_pressure;Samples;Min_cycle;Max_cycle;Signal;HPM_P1;HPM_P2
2022/09/19 00:02:43;;;;;;;2.80;1.70;;;;;;;5.94;86.24;98424.73;446283;1273;141841;-59
2022/09/19 00:12:50;;;;;;;3.80;1.80;;;;;;;5.81;86.22;98417.89;447014;1273;143008;-59
2022/09/19 00:33:21;;;;;;;1.40;1.30;;;;;;;5.56;86.66;98420.63;446828;1274;142014;-59
2022/09/19 00:43:45;;;;;;;3.00;1.70;;;;;;;5.51;86.94;98413.15;447008;1273;143960;-59
2022/09/19 00:53:52;;;;;;;2.40;2.10;;;;;;;5.46;87.10;98411.53;446337;1272;142061;-61
2022/09/19 01:03:57;;;;;;;2.30;1.80;;;;;;;5.49;87.29;98420.35;447052;1273;142855;-60
2022/09/19 01:14:14;;;;;;;3.90;1.80;;;;;;;5.59;87.63;98424.25;446330;1272;141912;-59
2022/09/19 01:24:43;;;;;;;3.20;2.10;;;;;;;5.77;87.65;98423.16;447041;1273;142391;-60
2022/09/19 01:34:53;;;;;;;2.80;2.60;;;;;;;5.97;87.64;98416.38;447050;1271;142666;-60
2022/09/19 01:44:59;;;;;;;4.60;2.50;;;;;;;6.14;87.48;98416.52;446810;1273;184131;-59
2022/09/19 01:55:12;;;;;;;4.20;2.60;;;;;;;6.29;87.32;98420.61;447109;1273;143497;-58
2022/09/19 02:05:27;;;;;;;5.30;4.00;;;;;;;6.40;86.96;98420.06;446276;1273;142415;-60
2022/09/19 02:15:36;;;;;;;4.30;3.70;;;;;;;6.52;86.98;98430.41;446855;1274;143082;-59
2022/09/19 02:25:45;;;;;;;3.60;3.20;;;;;;;6.64;86.65;98435.89;442944;1273;142129;-61
2022/09/19 02:35:56;;;;;;;5.40;3.10;;;;;;;6.63;86.36;98442.60;436931;1273;142379;-58
2022/09/19 02:46:07;;;;;;;4.40;4.00;;;;;;;6.65;86.43;98442.48;447084;1272;143443;-60
2022/09/19 02:56:16;;;;;;;6.10;5.50;;;;;;;6.70;86.38;98437.80;446245;1273;143437;-59
2022/09/19 03:06:26;;;;;;;6.20;5.60;;;;;;;6.70;86.15;98448.19;446439;1275;141940;-59
2022/09/19 03:16:35;;;;;;;8.30;7.40;;;;;;;6.72;86.10;98452.76;447059;1273;143519;-61
2022/09/19 03:26:40;;;;;;;7.60;6.10;;;;;;;6.71;86.05;98465.52;446301;1273;142309;-58
2022/09/19 03:36:47;;;;;;;8.60;7.90;;;;;;;6.75;86.14;98464.61;447010;1273;197698;-59
2022/09/19 03:46:53;;;;;;;9.10;7.20;;;;;;;6.75;85.95;98477.63;445514;1273;142137;-58
2022/09/19 03:56:59;;;;;;;12.40;8.70;;;;;;;6.76;85.85;98481.38;431892;1273;200642;-59
2022/09/19 04:07:05;;;;;;;10.60;8.00;;;;;;;6.70;85.80;98486.99;447033;1273;141634;-59
2022/09/19 04:17:13;;;;;;;9.60;6.90;;;;;;;6.72;85.80;98496.39;445811;1274;142707;-59
2022/09/19 04:27:28;;;;;;;8.70;7.50;;;;;;;6.81;85.64;98491.52;447004;1273;142383;-62
2022/09/19 04:37:33;;;;;;;10.80;7.90;;;;;;;6.89;85.60;98497.77;439095;1273;143051;-59
2022/09/19 04:47:40;;;;;;;10.00;8.30;;;;;;;6.92;85.50;98500.89;446282;1273;144015;-59
2022/09/19 04:57:46;;;;;;;7.50;6.60;;;;;;;6.91;85.25;98505.43;443730;1274;142166;-59
2022/09/19 05:07:51;;;;;;;9.20;7.50;;;;;;;7.04;85.25;98517.27;446914;1272;142943;-59
2022/09/19 05:17:58;;;;;;;8.10;7.30;;;;;;;7.22;85.19;98526.39;446283;1273;144014;-59
2022/09/19 05:28:06;;;;;;;10.30;7.60;;;;;;;7.34;84.57;98525.73;446942;1271;141731;-60
2022/09/19 05:38:11;;;;;;;10.10;7.50;;;;;;;7.48;84.35;98530.39;446322;1273;143245;-60
2022/09/19 05:48:17;;;;;;;9.80;8.50;;;;;;;7.73;84.06;98544.71;446966;1273;142828;-60
2022/09/19 05:58:24;;;;;;;10.70;9.60;;;;;;;7.79;83.99;98554.38;446877;1273;142166;-60
2022/09/19 06:08:30;;;;;;;8.70;7.90;;;;;;;8.52;83.59;98558.02;446343;1271;142143;-60
2022/09/19 06:18:35;;;;;;;14.10;9.80;;;;;;;9.17;82.03;98562.41;446899;1274;142253;-60
2022/09/19 06:28:42;;;;;;;10.80;9.20;;;;;;;8.88;81.02;98577.63;447027;1273;142764;-60
2022/09/19 06:38:47;;;;;;;9.90;9.00;;;;;;;9.17;80.64;98593.69;446318;1271;142757;-60
2022/09/19 06:48:53;;;;;;;9.30;8.50;;;;;;;9.30;79.86;98605.35;446059;1273;142380;-60
2022/09/19 06:58:58;;;;;;;8.90;8.00;;;;;;;9.38;79.12;98617.60;446257;1272;141787;-61
2022/09/19 07:09:06;;;;;;;10.20;9.30;;;;;;;9.17;78.13;98629.65;447111;1273;142029;-60
2022/09/19 07:19:12;;;;;;;9.10;8.30;;;;;;;9.23;78.18;98638.98;447090;1272;143882;-60
2022/09/19 07:29:18;;;;;;;10.40;9.20;;;;;;;9.39;77.65;98651.13;446355;1272;142624;-59
2022/09/19 07:39:23;;;;;;;12.70;10.20;;;;;;;9.34;77.12;98662.45;447085;1273;142491;-60
2022/09/19 07:49:29;;;;;;;9.80;9.00;;;;;;;9.38;77.35;98667.39;447045;1273;142239;-59
2022/09/19 07:59:35;;;;;;;6.50;6.00;;;;;;;9.40;77.17;98678.98;446292;1271;143733;-59
2022/09/19 08:09:40;;;;;;;5.80;4.40;;;;;;;9.69;76.53;98680.66;447057;1271;142631;-59
2022/09/19 08:19:46;;;;;;;4.60;4.20;;;;;;;9.91;75.97;98695.13;447016;1271;142517;-59
2022/09/19 08:29:52;;;;;;;4.40;4.10;;;;;;;10.17;75.28;98704.66;445889;1273;141907;-59
2022/09/19 08:50:25;;;;;;;4.60;3.10;;;;;;;11.72;73.30;98715.09;443403;1271;3810820;-59
2022/09/19 09:00:38;;;;;;;4.70;4.40;;;;;;;13.31;70.74;98713.98;447052;1273;142570;-60
2022/09/19 09:10:53;;;;;;;5.30;3.70;;;;;;;14.09;67.31;98714.68;447099;1271;144022;-59
2022/09/19 09:21:04;;;;;;;5.50;4.00;;;;;;;13.27;66.65;98719.91;447058;1272;142473;-59
2022/09/19 09:31:17;;;;;;;3.40;2.70;;;;;;;13.17;66.66;98720.76;447032;1273;142681;-59
2022/09/19 09:41:49;;;;;;;7.60;3.60;;;;;;;13.78;66.21;98725.39;446342;1270;143235;-59
2022/09/19 09:52:09;;;;;;;4.50;3.20;;;;;;;14.21;64.43;98735.78;447065;1272;142666;-60
2022/09/19 10:12:58;;;;;;;6.70;3.30;;;;;;;13.56;64.24;98755.31;447151;1272;145125;-59
2022/09/19 10:23:12;;;;;;;4.70;4.00;;;;;;;13.62;63.87;98767.61;446334;1271;142805;-59
2022/09/19 10:33:30;;;;;;;4.80;3.20;;;;;;;13.72;62.95;98771.13;447068;1271;142868;-60
2022/09/19 10:43:42;;;;;;;3.80;3.50;;;;;;;13.94;62.88;98768.14;447065;1272;142812;-59
2022/09/19 10:53:53;;;;;;;3.40;3.20;;;;;;;13.72;62.37;98767.65;446311;1273;143837;-59
2022/09/19 11:04:05;;;;;;;7.00;6.20;;;;;;;13.25;62.21;98769.27;446847;1273;142222;-59
2022/09/19 11:14:18;;;;;;;6.10;2.70;;;;;;;12.71;62.85;98770.11;446316;1270;141949;-59
2022/09/19 11:24:55;;;;;;;4.20;2.70;;;;;;;12.36;63.14;98769.16;447021;1273;141711;-59
2022/09/19 11:35:08;;;;;;;3.10;2.80;;;;;;;12.20;63.28;98775.39;446266;1273;149648;-59
2022/09/19 11:45:31;;;;;;;2.40;2.10;;;;;;;12.50;63.62;98781.15;446713;1274;142966;-60
2022/09/19 11:55:44;;;;;;;3.40;2.40;;;;;;;12.88;62.89;98783.20;446718;1275;143945;-59
2022/09/19 12:06:04;;;;;;;2.90;2.50;;;;;;;12.69;62.99;98787.67;445980;1275;143561;-58
2022/09/19 12:16:17;;;;;;;5.80;3.10;;;;;;;12.55;63.20;98788.80;446732;1275;199879;-59
2022/09/19 12:26:35;;;;;;;3.40;2.80;;;;;;;12.24;63.41;98795.20;445991;1275;146068;-60
2022/09/19 12:36:49;;;;;;;3.60;2.30;;;;;;;11.82;64.38;98797.25;446804;1273;143512;-60
2022/09/19 12:47:00;;;;;;;2.60;2.50;;;;;;;11.65;65.18;98800.08;447090;1271;141563;-61
2022/09/19 12:57:12;;;;;;;2.70;2.00;;;;;;;11.35;66.59;98807.70;447077;1273;142454;-60
2022/09/19 13:07:30;;;;;;;3.30;1.90;;;;;;;11.47;67.46;98812.67;447076;1273;194871;-59
2022/09/19 13:28:29;;;;;;;1.90;1.10;;;;;;;11.40;67.33;98818.85;446846;1274;143011;-60
2022/09/19 13:38:41;;;;;;;2.70;1.50;;;;;;;11.57;67.35;98823.82;446295;1273;142401;-60
2022/09/19 13:48:54;;;;;;;2.30;1.30;;;;;;;11.45;67.59;98832.66;447063;1273;142494;-60
2022/09/19 13:59:24;;;;;;;2.10;1.10;;;;;;;11.31;68.20;98835.98;444766;1273;142916;-60
2022/09/19 14:09:40;;;;;;;1.70;1.00;;;;;;;11.10;69.15;98843.96;447050;1273;143527;-60
2022/09/19 14:20:41;;;;;;;1.00;0.90;;;;;;;11.06;69.80;98845.83;446282;1272;143243;-60
2022/09/19 14:31:28;;;;;;;2.60;2.40;;;;;;;10.84;70.49;98848.04;447052;1273;142772;-61
2022/09/19 14:41:45;;;;;;;3.50;2.90;;;;;;;10.50;71.84;98850.99;446244;1273;143067;-63
2022/09/19 14:52:17;;;;;;;4.50;2.40;;;;;;;10.33;73.19;98851.53;437783;1273;142369;-62
2022/09/19 15:02:27;;;;;;;2.50;2.20;;;;;;;10.13;74.19;98852.25;429443;1273;141544;-62
2022/09/19 15:12:36;;;;;;;3.20;2.90;;;;;;;9.81;75.25;98858.27;434832;1272;141604;-63
2022/09/19 15:22:51;;;;;;;2.90;2.40;;;;;;;9.57;76.49;98859.42;441341;1272;142839;-62
2022/09/19 15:33:00;;;;;;;2.90;2.60;;;;;;;9.58;77.29;98859.88;438431;1273;142874;-63
2022/09/19 15:43:11;;;;;;;3.50;2.80;;;;;;;9.70;78.16;98864.85;435995;1273;141802;-63
2022/09/19 15:53:22;;;;;;;3.70;3.30;;;;;;;9.69;78.39;98871.70;437051;1273;142430;-63
2022/09/19 16:03:28;;;;;;;5.00;4.10;;;;;;;9.61;79.15;98876.48;437437;1273;142234;-62
2022/09/19 16:13:38;;;;;;;5.10;4.20;;;;;;;9.54;79.68;98888.86;435407;1272;147817;-64
2022/09/19 16:23:48;;;;;;;4.90;4.40;;;;;;;9.47;80.31;98893.48;436892;1273;142658;-62
2022/09/19 16:33:56;;;;;;;6.10;5.50;;;;;;;9.38;80.89;98898.84;431731;1273;143760;-64
2022/09/19 16:44:04;;;;;;;5.80;5.30;;;;;;;9.26;81.61;98908.04;429724;1274;151794;-63
2022/09/19 16:54:13;;;;;;;6.70;6.10;;;;;;;9.15;82.42;98917.75;431594;1275;147358;-63
2022/09/19 17:04:20;;;;;;;7.50;6.70;;;;;;;9.16;83.07;98919.94;432862;1275;140938;-63
2022/09/19 17:14:25;;;;;;;9.00;8.10;;;;;;;9.22;83.36;98929.80;431375;1274;142295;-63
2022/09/19 17:24:31;;;;;;;9.60;6.90;;;;;;;9.23;83.74;98933.91;431629;1274;145605;-64
2022/09/19 17:34:37;;;;;;;7.30;6.70;;;;;;;9.23;84.02;98929.23;430769;1274;142407;-63
2022/09/19 17:44:44;;;;;;;9.00;8.10;;;;;;;9.14;84.26;98942.58;428865;1273;142533;-61
2022/09/19 17:54:50;;;;;;;7.80;7.10;;;;;;;9.11;84.70;98953.58;430591;1274;141517;-63
2022/09/19 18:04:56;;;;;;;7.10;6.50;;;;;;;9.08;85.11;98964.65;429481;1275;142346;-63
2022/09/19 18:15:02;;;;;;;7.90;7.20;;;;;;;9.08;85.46;98969.67;431771;1274;194065;-63
2022/09/19 18:25:14;;;;;;;8.60;7.90;;;;;;;9.13;85.54;98976.42;430674;1274;142598;-62
2022/09/19 18:35:20;;;;;;;10.40;9.40;;;;;;;9.11;85.93;98971.61;431376;1273;163614;-62
2022/09/19 18:45:26;;;;;;;12.20;11.10;;;;;;;9.09;86.18;98975.23;442672;1273;143061;-62
2022/09/19 18:55:34;;;;;;;11.10;9.80;;;;;;;9.09;86.22;98986.55;439974;1273;142185;-63
2022/09/19 19:05:45;;;;;;;11.60;10.60;;;;;;;9.12;86.59;98998.25;432554;1273;145945;-64
2022/09/19 19:15:50;;;;;;;11.50;10.40;;;;;;;9.15;86.87;99001.23;439371;1273;148074;-62
2022/09/19 19:25:56;;;;;;;13.10;11.80;;;;;;;9.17;87.15;99001.94;440976;1273;142640;-63
2022/09/19 19:36:04;;;;;;;11.70;10.60;;;;;;;9.17;87.06;99000.04;430380;1273;142214;-62
2022/09/19 19:46:13;;;;;;;12.20;11.10;;;;;;;9.12;87.42;99001.59;432519;1273;142448;-62
2022/09/19 19:56:22;;;;;;;14.20;12.70;;;;;;;9.12;87.74;99005.58;435500;1273;141646;-62
2022/09/19 20:06:31;;;;;;;15.40;14.00;;;;;;;9.13;87.88;99003.80;446805;1274;142721;-63
2022/09/19 20:16:38;;;;;;;15.10;13.60;;;;;;;9.14;88.06;99007.20;440735;1273;146485;-63
2022/09/19 20:26:45;;;;;;;17.00;15.20;;;;;;;9.14;88.26;99010.88;435115;1271;142391;-63
2022/09/19 20:36:50;;;;;;;17.90;16.20;;;;;;;9.10;88.59;99020.20;432847;1273;142332;-64
2022/09/19 20:46:56;;;;;;;16.80;15.20;;;;;;;9.11;88.63;99019.98;429737;1273;188295;-65
2022/09/19 20:57:02;;;;;;;16.10;14.50;;;;;;;9.03;88.69;99018.05;445504;1273;1676591;-64
2022/09/19 21:07:08;;;;;;;17.40;15.70;;;;;;;9.05;88.82;99014.64;433398;1273;141920;-64
2022/09/19 21:17:13;;;;;;;14.90;13.50;;;;;;;8.96;88.93;99021.85;429282;1272;141926;-62
2022/09/19 21:27:20;;;;;;;15.90;14.10;;;;;;;8.87;89.20;99030.27;429978;1273;142857;-64
2022/09/19 21:37:26;;;;;;;16.60;14.90;;;;;;;8.75;89.26;99039.45;430288;1276;148376;-61
2022/09/19 21:47:32;;;;;;;14.00;12.60;;;;;;;8.67;89.64;99043.96;429500;1274;142475;-65
2022/09/19 21:57:38;;;;;;;12.40;11.30;;;;;;;8.58;89.64;99058.13;437453;1274;142724;-63
2022/09/19 22:07:43;;;;;;;12.60;11.40;;;;;;;8.53;89.68;99060.88;446322;1275;142694;-63
2022/09/19 22:17:49;;;;;;;11.00;9.80;;;;;;;8.52;89.65;99058.55;445585;1275;143298;-64
2022/09/19 22:27:57;;;;;;;11.80;10.70;;;;;;;8.49;89.89;99064.14;446810;1273;144944;-63
2022/09/19 22:38:02;;;;;;;14.30;9.40;;;;;;;8.46;89.70;99061.83;446143;1273;142688;-64
2022/09/19 22:48:08;;;;;;;10.10;9.20;;;;;;;8.45;89.54;99066.47;447049;1272;142286;-63
2022/09/19 22:58:14;;;;;;;9.00;8.00;;;;;;;8.43;89.81;99070.05;442839;1275;142373;-64
2022/09/19 23:08:20;;;;;;;8.40;7.20;;;;;;;8.38;89.69;99069.33;445838;1275;141964;-63
2022/09/19 23:18:25;;;;;;;7.50;6.80;;;;;;;8.34;89.59;99076.39;446892;1273;141561;-64
2022/09/19 23:28:31;;;;;;;9.20;6.20;;;;;;;8.26;89.80;99085.23;447028;1273;142256;-64
2022/09/19 23:38:37;;;;;;;7.80;7.10;;;;;;;8.22;90.00;99091.92;446261;1271;141478;-64
2022/09/19 23:48:43;;;;;;;7.30;6.40;;;;;;;8.21;90.18;99097.21;447059;1271;142307;-63
2022/09/19 23:58:49;;;;;;;7.10;6.40;;;;;;;8.19;90.27;99100.83;440689;1272;141666;-63
